sensor_id;sensor_type;location;lat;lon;timestamp;P1;durP1;ratioP1;P2;durP2;ratioP2
8964;SDS011;4517;49.020;12.066;2023-04-06T00:01:33;14.83;;;13.63;;
8964;SDS011;4517;49.020;12.066;2023-04-06T00:03:59;15.43;;;13.90;;
8964;SDS011;4517;49.020;12.066;2023-04-06T00:06:25;16.03;;;14.40;;
8964;SDS011;4517;49.020;12.066;2023-04-06T00:08:51;15.93;;;14.47;;
8964;SDS011;4517;49.020;12.066;2023-04-06T00:11:17;16.80;;;14.30;;
8964;SDS011;4517;49.020;12.066;2023-04-06T00:13:43;15.40;;;14.10;;
8964;SDS011;4517;49.020;12.066;2023-04-06T00:16:08;17.20;;;13.93;;
8964;SDS011;4517;49.020;12.066;2023-04-06T00:18:34;15.07;;;13.77;;
8964;SDS011;4517;49.020;12.066;2023-04-06T00:21:00;16.47;;;15.13;;
8964;SDS011;4517;49.020;12.066;2023-04-06T00:23:25;15.90;;;14.40;;
8964;SDS011;4517;49.020;12.066;2023-04-06T00:25:51;15.23;;;13.97;;
8964;SDS011;4517;49.020;12.066;2023-04-06T00:28:17;17.10;;;15.47;;
8964;SDS011;4517;49.020;12.066;2023-04-06T00:30:42;15.80;;;14.60;;
8964;SDS011;4517;49.020;12.066;2023-04-06T00:33:08;14.50;;;13.37;;
8964;SDS011;4517;49.020;12.066;2023-04-06T00:35:34;15.23;;;13.90;;
8964;SDS011;4517;49.020;12.066;2023-04-06T00:38:00;15.93;;;14.33;;
8964;SDS011;4517;49.020;12.066;2023-04-06T00:40:25;15.93;;;14.33;;
8964;SDS011;4517;49.020;12.066;2023-04-06T00:42:53;15.83;;;14.43;;
8964;SDS011;4517;49.020;12.066;2023-04-06T00:45:19;15.87;;;14.50;;
8964;SDS011;4517;49.020;12.066;2023-04-06T00:47:45;15.57;;;14.00;;
8964;SDS011;4517;49.020;12.066;2023-04-06T00:50:11;15.73;;;13.97;;
8964;SDS011;4517;49.020;12.066;2023-04-06T00:52:36;15.57;;;14.37;;
8964;SDS011;4517;49.020;12.066;2023-04-06T00:55:03;15.47;;;14.27;;
8964;SDS011;4517;49.020;12.066;2023-04-06T00:57:28;15.80;;;14.20;;
8964;SDS011;4517;49.020;12.066;2023-04-06T00:59:54;14.57;;;13.53;;
8964;SDS011;4517;49.020;12.066;2023-04-06T01:02:20;14.83;;;13.80;;
8964;SDS011;4517;49.020;12.066;2023-04-06T01:04:48;14.97;;;13.90;;
8964;SDS011;4517;49.020;12.066;2023-04-06T01:07:14;15.40;;;13.93;;
8964;SDS011;4517;49.020;12.066;2023-04-06T01:09:39;15.13;;;13.60;;
8964;SDS011;4517;49.020;12.066;2023-04-06T01:12:06;26.20;;;16.40;;
8964;SDS011;4517;49.020;12.066;2023-04-06T01:14:32;15.77;;;14.40;;
8964;SDS011;4517;49.020;12.066;2023-04-06T01:16:58;15.80;;;14.60;;
8964;SDS011;4517;49.020;12.066;2023-04-06T01:19:25;16.30;;;14.70;;
8964;SDS011;4517;49.020;12.066;2023-04-06T01:21:51;15.50;;;14.20;;
8964;SDS011;4517;49.020;12.066;2023-04-06T01:24:18;14.80;;;13.70;;
8964;SDS011;4517;49.020;12.066;2023-04-06T01:26:44;15.57;;;14.17;;
8964;SDS011;4517;49.020;12.066;2023-04-06T01:29:10;16.40;;;15.00;;
8964;SDS011;4517;49.020;12.066;2023-04-06T01:31:36;15.73;;;14.20;;
8964;SDS011;4517;49.020;12.066;2023-04-06T01:34:03;15.47;;;14.17;;
8964;SDS011;4517;49.020;12.066;2023-04-06T01:36:28;14.83;;;13.53;;
8964;SDS011;4517;49.020;12.066;2023-04-06T01:38:54;16.77;;;15.20;;
8964;SDS011;4517;49.020;12.066;2023-04-06T01:41:20;14.63;;;13.53;;
8964;SDS011;4517;49.020;12.066;2023-04-06T01:43:47;15.50;;;14.20;;
8964;SDS011;4517;49.020;12.066;2023-04-06T01:46:13;14.87;;;13.80;;
8964;SDS011;4517;49.020;12.066;2023-04-06T01:48:38;14.37;;;13.27;;
8964;SDS011;4517;49.020;12.066;2023-04-06T01:51:04;15.50;;;14.10;;
8964;SDS011;4517;49.020;12.066;2023-04-06T01:53:30;15.23;;;14.00;;
8964;SDS011;4517;49.020;12.066;2023-04-06T01:55:55;14.60;;;13.40;;
8964;SDS011;4517;49.020;12.066;2023-04-06T01:58:21;15.40;;;13.93;;
8964;SDS011;4517;49.020;12.066;2023-04-06T02:00:46;16.50;;;14.40;;
8964;SDS011;4517;49.020;12.066;2023-04-06T02:03:12;14.80;;;13.37;;
8964;SDS011;4517;49.020;12.066;2023-04-06T02:05:39;15.80;;;14.40;;
8964;SDS011;4517;49.020;12.066;2023-04-06T02:08:05;15.80;;;14.43;;
8964;SDS011;4517;49.020;12.066;2023-04-06T02:10:31;16.00;;;14.70;;
8964;SDS011;4517;49.020;12.066;2023-04-06T02:12:57;15.53;;;13.97;;
8964;SDS011;4517;49.020;12.066;2023-04-06T02:15:23;15.60;;;14.23;;
8964;SDS011;4517;49.020;12.066;2023-04-06T02:17:49;19.20;;;14.60;;
8964;SDS011;4517;49.020;12.066;2023-04-06T02:20:15;15.97;;;14.67;;
8964;SDS011;4517;49.020;12.066;2023-04-06T02:22:40;15.10;;;13.80;;
8964;SDS011;4517;49.020;12.066;2023-04-06T02:25:06;15.60;;;14.10;;
8964;SDS011;4517;49.020;12.066;2023-04-06T02:27:32;14.40;;;13.30;;
8964;SDS011;4517;49.020;12.066;2023-04-06T02:29:58;14.93;;;13.47;;
8964;SDS011;4517;49.020;12.066;2023-04-06T02:32:24;15.60;;;14.40;;
8964;SDS011;4517;49.020;12.066;2023-04-06T02:34:49;15.60;;;13.97;;
8964;SDS011;4517;49.020;12.066;2023-04-06T02:37:15;15.30;;;13.97;;
8964;SDS011;4517;49.020;12.066;2023-04-06T02:39:41;15.23;;;13.97;;
8964;SDS011;4517;49.020;12.066;2023-04-06T02:42:06;14.80;;;13.50;;
8964;SDS011;4517;49.020;12.066;2023-04-06T02:44:33;15.10;;;13.53;;
8964;SDS011;4517;49.020;12.066;2023-04-06T02:46:59;15.70;;;14.30;;
8964;SDS011;4517;49.020;12.066;2023-04-06T02:49:24;16.67;;;15.07;;
8964;SDS011;4517;49.020;12.066;2023-04-06T02:51:50;16.00;;;14.60;;
8964;SDS011;4517;49.020;12.066;2023-04-06T02:54:16;14.40;;;13.40;;
8964;SDS011;4517;49.020;12.066;2023-04-06T02:56:41;15.27;;;13.90;;
8964;SDS011;4517;49.020;12.066;2023-04-06T02:59:07;15.73;;;14.33;;
8964;SDS011;4517;49.020;12.066;2023-04-06T03:01:32;15.73;;;14.53;;
8964;SDS011;4517;49.020;12.066;2023-04-06T03:03:58;16.53;;;14.90;;
8964;SDS011;4517;49.020;12.066;2023-04-06T03:06:23;15.80;;;14.40;;
8964;SDS011;4517;49.020;12.066;2023-04-06T03:08:49;16.53;;;15.10;;
8964;SDS011;4517;49.020;12.066;2023-04-06T03:11:15;16.50;;;15.00;;
8964;SDS011;4517;49.020;12.066;2023-04-06T03:13:40;16.73;;;15.00;;
8964;SDS011;4517;49.020;12.066;2023-04-06T03:16:06;16.70;;;15.33;;
8964;SDS011;4517;49.020;12.066;2023-04-06T03:18:32;16.07;;;14.67;;
8964;SDS011;4517;49.020;12.066;2023-04-06T03:20:57;15.60;;;14.40;;
8964;SDS011;4517;49.020;12.066;2023-04-06T03:23:25;15.80;;;14.40;;
8964;SDS011;4517;49.020;12.066;2023-04-06T03:25:50;16.40;;;15.10;;
8964;SDS011;4517;49.020;12.066;2023-04-06T03:28:16;18.23;;;14.80;;
8964;SDS011;4517;49.020;12.066;2023-04-06T03:30:42;15.80;;;14.20;;
8964;SDS011;4517;49.020;12.066;2023-04-06T03:33:07;15.63;;;14.30;;
8964;SDS011;4517;49.020;12.066;2023-04-06T03:35:33;16.33;;;15.03;;
8964;SDS011;4517;49.020;12.066;2023-04-06T03:37:58;15.47;;;14.27;;
8964;SDS011;4517;49.020;12.066;2023-04-06T03:40:24;17.07;;;15.37;;
8964;SDS011;4517;49.020;12.066;2023-04-06T03:42:50;15.60;;;14.40;;
8964;SDS011;4517;49.020;12.066;2023-04-06T03:45:15;16.33;;;14.67;;
8964;SDS011;4517;49.020;12.066;2023-04-06T03:47:41;16.40;;;14.77;;
8964;SDS011;4517;49.020;12.066;2023-04-06T03:50:07;15.30;;;14.03;;
8964;SDS011;4517;49.020;12.066;2023-04-06T03:52:33;15.10;;;13.77;;
8964;SDS011;4517;49.020;12.066;2023-04-06T03:54:59;14.77;;;13.77;;
8964;SDS011;4517;49.020;12.066;2023-04-06T03:57:25;16.50;;;14.97;;
8964;SDS011;4517;49.020;12.066;2023-04-06T03:59:50;23.87;;;14.50;;
8964;SDS011;4517;49.020;12.066;2023-04-06T04:02:16;15.87;;;14.30;;
8964;SDS011;4517;49.020;12.066;2023-04-06T04:04:41;15.00;;;13.70;;
8964;SDS011;4517;49.020;12.066;2023-04-06T04:07:07;15.40;;;13.93;;
8964;SDS011;4517;49.020;12.066;2023-04-06T04:09:32;14.23;;;13.23;;
8964;SDS011;4517;49.020;12.066;2023-04-06T04:11:58;14.50;;;13.37;;
8964;SDS011;4517;49.020;12.066;2023-04-06T04:14:24;14.90;;;13.73;;
8964;SDS011;4517;49.020;12.066;2023-04-06T04:16:50;15.57;;;14.17;;
8964;SDS011;4517;49.020;12.066;2023-04-06T04:19:16;15.37;;;14.00;;
8964;SDS011;4517;49.020;12.066;2023-04-06T04:21:42;14.93;;;13.40;;
8964;SDS011;4517;49.020;12.066;2023-04-06T04:24:09;15.60;;;14.27;;
8964;SDS011;4517;49.020;12.066;2023-04-06T04:26:35;16.43;;;14.73;;
8964;SDS011;4517;49.020;12.066;2023-04-06T04:29:02;15.47;;;14.10;;
8964;SDS011;4517;49.020;12.066;2023-04-06T04:31:27;16.43;;;15.10;;
8964;SDS011;4517;49.020;12.066;2023-04-06T04:33:53;15.30;;;14.10;;
8964;SDS011;4517;49.020;12.066;2023-04-06T04:36:18;17.40;;;13.97;;
8964;SDS011;4517;49.020;12.066;2023-04-06T04:38:44;16.03;;;14.73;;
8964;SDS011;4517;49.020;12.066;2023-04-06T04:41:10;20.83;;;15.23;;
8964;SDS011;4517;49.020;12.066;2023-04-06T04:43:35;16.80;;;15.20;;
8964;SDS011;4517;49.020;12.066;2023-04-06T04:46:01;19.97;;;18.37;;
8964;SDS011;4517;49.020;12.066;2023-04-06T04:48:27;17.00;;;14.40;;
8964;SDS011;4517;49.020;12.066;2023-04-06T04:50:52;14.97;;;13.70;;
8964;SDS011;4517;49.020;12.066;2023-04-06T04:53:20;16.30;;;14.80;;
8964;SDS011;4517;49.020;12.066;2023-04-06T04:55:45;17.17;;;14.20;;
8964;SDS011;4517;49.020;12.066;2023-04-06T04:58:11;16.03;;;14.30;;
8964;SDS011;4517;49.020;12.066;2023-04-06T05:00:41;16.70;;;14.93;;
8964;SDS011;4517;49.020;12.066;2023-04-06T05:03:07;17.60;;;15.93;;
8964;SDS011;4517;49.020;12.066;2023-04-06T05:05:33;19.60;;;13.53;;
8964;SDS011;4517;49.020;12.066;2023-04-06T05:07:59;15.27;;;13.97;;
8964;SDS011;4517;49.020;12.066;2023-04-06T05:10:25;14.07;;;13.00;;
8964;SDS011;4517;49.020;12.066;2023-04-06T05:12:50;15.23;;;13.93;;
8964;SDS011;4517;49.020;12.066;2023-04-06T05:15:16;17.97;;;15.57;;
8964;SDS011;4517;49.020;12.066;2023-04-06T05:17:41;15.30;;;13.70;;
8964;SDS011;4517;49.020;12.066;2023-04-06T05:20:07;16.07;;;14.77;;
8964;SDS011;4517;49.020;12.066;2023-04-06T05:22:33;17.10;;;15.57;;
8964;SDS011;4517;49.020;12.066;2023-04-06T05:24:59;18.00;;;15.70;;
8964;SDS011;4517;49.020;12.066;2023-04-06T05:27:26;17.13;;;15.60;;
8964;SDS011;4517;49.020;12.066;2023-04-06T05:29:51;16.30;;;14.70;;
8964;SDS011;4517;49.020;12.066;2023-04-06T05:32:17;22.80;;;20.67;;
8964;SDS011;4517;49.020;12.066;2023-04-06T05:34:46;19.37;;;16.03;;
8964;SDS011;4517;49.020;12.066;2023-04-06T05:37:13;27.20;;;16.60;;
8964;SDS011;4517;49.020;12.066;2023-04-06T05:39:39;18.97;;;17.27;;
8964;SDS011;4517;49.020;12.066;2023-04-06T05:42:05;18.20;;;16.60;;
8964;SDS011;4517;49.020;12.066;2023-04-06T05:44:31;18.27;;;16.70;;
8964;SDS011;4517;49.020;12.066;2023-04-06T05:46:57;18.80;;;17.20;;
8964;SDS011;4517;49.020;12.066;2023-04-06T05:49:22;18.90;;;17.30;;
8964;SDS011;4517;49.020;12.066;2023-04-06T05:51:48;20.00;;;18.03;;
8964;SDS011;4517;49.020;12.066;2023-04-06T05:54:14;17.40;;;15.80;;
8964;SDS011;4517;49.020;12.066;2023-04-06T05:56:39;17.23;;;15.83;;
8964;SDS011;4517;49.020;12.066;2023-04-06T05:59:05;16.63;;;15.23;;
8964;SDS011;4517;49.020;12.066;2023-04-06T06:01:30;17.87;;;16.27;;
8964;SDS011;4517;49.020;12.066;2023-04-06T06:03:57;18.70;;;16.23;;
8964;SDS011;4517;49.020;12.066;2023-04-06T06:06:23;18.93;;;17.10;;
8964;SDS011;4517;49.020;12.066;2023-04-06T06:08:48;18.47;;;16.63;;
8964;SDS011;4517;49.020;12.066;2023-04-06T06:11:14;18.77;;;16.93;;
8964;SDS011;4517;49.020;12.066;2023-04-06T06:13:39;17.50;;;16.00;;
8964;SDS011;4517;49.020;12.066;2023-04-06T06:16:05;18.50;;;16.13;;
8964;SDS011;4517;49.020;12.066;2023-04-06T06:18:30;16.73;;;15.27;;
8964;SDS011;4517;49.020;12.066;2023-04-06T06:20:57;17.23;;;15.50;;
8964;SDS011;4517;49.020;12.066;2023-04-06T06:23:22;24.07;;;22.03;;
8964;SDS011;4517;49.020;12.066;2023-04-06T06:25:48;18.13;;;16.30;;
8964;SDS011;4517;49.020;12.066;2023-04-06T06:28:14;21.20;;;16.90;;
8964;SDS011;4517;49.020;12.066;2023-04-06T06:30:39;22.50;;;17.10;;
8964;SDS011;4517;49.020;12.066;2023-04-06T06:33:05;18.20;;;16.60;;
8964;SDS011;4517;49.020;12.066;2023-04-06T06:35:31;19.90;;;16.07;;
8964;SDS011;4517;49.020;12.066;2023-04-06T06:37:56;16.37;;;14.97;;
8964;SDS011;4517;49.020;12.066;2023-04-06T06:40:22;27.07;;;17.40;;
8964;SDS011;4517;49.020;12.066;2023-04-06T06:42:49;17.57;;;15.63;;
8964;SDS011;4517;49.020;12.066;2023-04-06T06:45:15;18.57;;;16.90;;
8964;SDS011;4517;49.020;12.066;2023-04-06T06:47:41;26.50;;;17.00;;
8964;SDS011;4517;49.020;12.066;2023-04-06T06:50:07;19.47;;;17.17;;
8964;SDS011;4517;49.020;12.066;2023-04-06T06:52:32;17.67;;;16.17;;
8964;SDS011;4517;49.020;12.066;2023-04-06T06:54:58;17.53;;;16.00;;
8964;SDS011;4517;49.020;12.066;2023-04-06T06:57:24;31.60;;;16.07;;
8964;SDS011;4517;49.020;12.066;2023-04-06T06:59:50;17.50;;;15.93;;
8964;SDS011;4517;49.020;12.066;2023-04-06T07:02:16;19.90;;;16.20;;
8964;SDS011;4517;49.020;12.066;2023-04-06T07:04:41;18.07;;;16.33;;
8964;SDS011;4517;49.020;12.066;2023-04-06T07:07:07;23.87;;;17.00;;
8964;SDS011;4517;49.020;12.066;2023-04-06T07:09:33;18.50;;;16.53;;
8964;SDS011;4517;49.020;12.066;2023-04-06T07:11:59;19.70;;;16.33;;
8964;SDS011;4517;49.020;12.066;2023-04-06T07:14:25;19.17;;;16.33;;
8964;SDS011;4517;49.020;12.066;2023-04-06T07:16:51;18.03;;;16.37;;
8964;SDS011;4517;49.020;12.066;2023-04-06T07:19:17;17.77;;;16.30;;
8964;SDS011;4517;49.020;12.066;2023-04-06T07:21:42;19.67;;;17.97;;
8964;SDS011;4517;49.020;12.066;2023-04-06T07:24:08;19.07;;;17.40;;
8964;SDS011;4517;49.020;12.066;2023-04-06T07:26:33;18.07;;;16.37;;
8964;SDS011;4517;49.020;12.066;2023-04-06T07:28:59;17.90;;;16.30;;
8964;SDS011;4517;49.020;12.066;2023-04-06T07:31:25;18.67;;;16.87;;
8964;SDS011;4517;49.020;12.066;2023-04-06T07:33:50;17.60;;;16.00;;
8964;SDS011;4517;49.020;12.066;2023-04-06T07:36:16;17.87;;;16.47;;
8964;SDS011;4517;49.020;12.066;2023-04-06T07:38:41;18.13;;;16.53;;
8964;SDS011;4517;49.020;12.066;2023-04-06T07:41:07;17.93;;;16.23;;
8964;SDS011;4517;49.020;12.066;2023-04-06T07:43:33;16.53;;;15.33;;
8964;SDS011;4517;49.020;12.066;2023-04-06T07:45:58;18.03;;;16.63;;
8964;SDS011;4517;49.020;12.066;2023-04-06T07:48:25;17.40;;;15.70;;
8964;SDS011;4517;49.020;12.066;2023-04-06T07:50:51;23.57;;;21.43;;
8964;SDS011;4517;49.020;12.066;2023-04-06T07:53:16;18.10;;;16.60;;
8964;SDS011;4517;49.020;12.066;2023-04-06T07:55:42;19.33;;;16.60;;
8964;SDS011;4517;49.020;12.066;2023-04-06T07:58:07;18.40;;;16.97;;
8964;SDS011;4517;49.020;12.066;2023-04-06T08:00:33;17.87;;;16.37;;
8964;SDS011;4517;49.020;12.066;2023-04-06T08:02:59;20.10;;;18.20;;
8964;SDS011;4517;49.020;12.066;2023-04-06T08:05:24;17.57;;;15.73;;
8964;SDS011;4517;49.020;12.066;2023-04-06T08:07:50;18.33;;;16.40;;
8964;SDS011;4517;49.020;12.066;2023-04-06T08:10:15;17.50;;;16.10;;
8964;SDS011;4517;49.020;12.066;2023-04-06T08:12:42;17.57;;;16.17;;
8964;SDS011;4517;49.020;12.066;2023-04-06T08:15:08;21.93;;;19.73;;
8964;SDS011;4517;49.020;12.066;2023-04-06T08:17:34;18.30;;;16.90;;
8964;SDS011;4517;49.020;12.066;2023-04-06T08:20:00;20.17;;;17.80;;
8964;SDS011;4517;49.020;12.066;2023-04-06T08:22:25;16.90;;;15.40;;
8964;SDS011;4517;49.020;12.066;2023-04-06T08:24:52;18.97;;;17.27;;
8964;SDS011;4517;49.020;12.066;2023-04-06T08:27:18;18.03;;;16.43;;
8964;SDS011;4517;49.020;12.066;2023-04-06T08:29:43;18.73;;;16.87;;
8964;SDS011;4517;49.020;12.066;2023-04-06T08:32:09;17.17;;;15.63;;
8964;SDS011;4517;49.020;12.066;2023-04-06T08:34:35;18.30;;;16.70;;
8964;SDS011;4517;49.020;12.066;2023-04-06T08:37:01;19.10;;;16.90;;
8964;SDS011;4517;49.020;12.066;2023-04-06T08:39:27;18.27;;;16.57;;
8964;SDS011;4517;49.020;12.066;2023-04-06T08:41:55;23.00;;;16.93;;
8964;SDS011;4517;49.020;12.066;2023-04-06T08:44:25;17.37;;;15.97;;
8964;SDS011;4517;49.020;12.066;2023-04-06T08:46:51;19.03;;;17.00;;
8964;SDS011;4517;49.020;12.066;2023-04-06T08:49:17;19.27;;;17.67;;
8964;SDS011;4517;49.020;12.066;2023-04-06T08:51:44;20.07;;;18.10;;
8964;SDS011;4517;49.020;12.066;2023-04-06T08:54:10;20.77;;;16.93;;
8964;SDS011;4517;49.020;12.066;2023-04-06T08:56:39;17.93;;;16.43;;
8964;SDS011;4517;49.020;12.066;2023-04-06T08:59:05;18.23;;;16.43;;
8964;SDS011;4517;49.020;12.066;2023-04-06T09:01:33;17.50;;;16.00;;
8964;SDS011;4517;49.020;12.066;2023-04-06T09:04:01;19.23;;;17.30;;
8964;SDS011;4517;49.020;12.066;2023-04-06T09:06:30;18.73;;;16.80;;
8964;SDS011;4517;49.020;12.066;2023-04-06T09:08:55;18.33;;;16.57;;
8964;SDS011;4517;49.020;12.066;2023-04-06T09:11:21;18.67;;;17.37;;
8964;SDS011;4517;49.020;12.066;2023-04-06T09:13:48;17.33;;;15.87;;
8964;SDS011;4517;49.020;12.066;2023-04-06T09:16:15;17.67;;;16.10;;
8964;SDS011;4517;49.020;12.066;2023-04-06T09:18:41;15.50;;;14.30;;
8964;SDS011;4517;49.020;12.066;2023-04-06T09:21:07;17.73;;;15.87;;
8964;SDS011;4517;49.020;12.066;2023-04-06T09:23:33;17.23;;;15.70;;
8964;SDS011;4517;49.020;12.066;2023-04-06T09:26:15;18.67;;;16.60;;
8964;SDS011;4517;49.020;12.066;2023-04-06T09:28:49;18.13;;;16.40;;
8964;SDS011;4517;49.020;12.066;2023-04-06T09:31:17;17.83;;;16.30;;
8964;SDS011;4517;49.020;12.066;2023-04-06T09:33:48;18.80;;;17.03;;
8964;SDS011;4517;49.020;12.066;2023-04-06T09:36:13;18.70;;;17.20;;
8964;SDS011;4517;49.020;12.066;2023-04-06T09:38:56;18.87;;;17.03;;
8964;SDS011;4517;49.020;12.066;2023-04-06T09:41:30;15.63;;;14.43;;
8964;SDS011;4517;49.020;12.066;2023-04-06T09:44:04;16.93;;;15.63;;
8964;SDS011;4517;49.020;12.066;2023-04-06T09:46:34;18.57;;;16.93;;
8964;SDS011;4517;49.020;12.066;2023-04-06T09:49:02;17.10;;;15.83;;
8964;SDS011;4517;49.020;12.066;2023-04-06T09:51:30;15.70;;;14.60;;
8964;SDS011;4517;49.020;12.066;2023-04-06T09:54:00;18.73;;;16.90;;
8964;SDS011;4517;49.020;12.066;2023-04-06T09:56:28;19.93;;;18.03;;
8964;SDS011;4517;49.020;12.066;2023-04-06T09:59:01;18.57;;;16.87;;
8964;SDS011;4517;49.020;12.066;2023-04-06T10:01:30;18.03;;;16.70;;
8964;SDS011;4517;49.020;12.066;2023-04-06T10:06:27;17.30;;;16.00;;
8964;SDS011;4517;49.020;12.066;2023-04-06T10:08:57;17.13;;;16.00;;
8964;SDS011;4517;49.020;12.066;2023-04-06T10:11:24;16.43;;;15.27;;
8964;SDS011;4517;49.020;12.066;2023-04-06T10:13:50;17.80;;;16.50;;
8964;SDS011;4517;49.020;12.066;2023-04-06T10:16:16;17.03;;;15.83;;
8964;SDS011;4517;49.020;12.066;2023-04-06T10:18:44;18.70;;;17.20;;
8964;SDS011;4517;49.020;12.066;2023-04-06T10:21:16;17.17;;;15.80;;
8964;SDS011;4517;49.020;12.066;2023-04-06T10:23:52;17.40;;;16.07;;
8964;SDS011;4517;49.020;12.066;2023-04-06T10:26:23;18.40;;;16.70;;
8964;SDS011;4517;49.020;12.066;2023-04-06T10:28:49;17.83;;;16.43;;
8964;SDS011;4517;49.020;12.066;2023-04-06T10:31:23;17.50;;;16.10;;
8964;SDS011;4517;49.020;12.066;2023-04-06T10:33:56;18.40;;;17.03;;
8964;SDS011;4517;49.020;12.066;2023-04-06T10:36:33;19.80;;;18.20;;
8964;SDS011;4517;49.020;12.066;2023-04-06T10:39:03;19.37;;;17.67;;
8964;SDS011;4517;49.020;12.066;2023-04-06T10:41:34;18.47;;;17.07;;
8964;SDS011;4517;49.020;12.066;2023-04-06T10:44:07;17.33;;;16.00;;
8964;SDS011;4517;49.020;12.066;2023-04-06T10:46:33;18.20;;;16.70;;
8964;SDS011;4517;49.020;12.066;2023-04-06T10:49:12;17.17;;;15.87;;
8964;SDS011;4517;49.020;12.066;2023-04-06T10:51:38;19.50;;;17.73;;
8964;SDS011;4517;49.020;12.066;2023-04-06T10:54:05;17.90;;;16.40;;
8964;SDS011;4517;49.020;12.066;2023-04-06T10:56:31;25.30;;;23.30;;
8964;SDS011;4517;49.020;12.066;2023-04-06T10:59:01;16.73;;;15.40;;
8964;SDS011;4517;49.020;12.066;2023-04-06T11:01:27;17.47;;;15.97;;
8964;SDS011;4517;49.020;12.066;2023-04-06T11:03:53;17.23;;;15.93;;
8964;SDS011;4517;49.020;12.066;2023-04-06T11:06:24;17.73;;;16.07;;
8964;SDS011;4517;49.020;12.066;2023-04-06T11:08:52;16.87;;;15.43;;
8964;SDS011;4517;49.020;12.066;2023-04-06T11:11:18;17.77;;;16.40;;
8964;SDS011;4517;49.020;12.066;2023-04-06T11:16:16;17.67;;;16.17;;
8964;SDS011;4517;49.020;12.066;2023-04-06T11:18:56;18.70;;;17.20;;
8964;SDS011;4517;49.020;12.066;2023-04-06T11:21:33;17.87;;;16.47;;
8964;SDS011;4517;49.020;12.066;2023-04-06T11:24:07;17.83;;;16.40;;
8964;SDS011;4517;49.020;12.066;2023-04-06T11:26:38;18.47;;;16.97;;
8964;SDS011;4517;49.020;12.066;2023-04-06T11:29:15;17.90;;;16.30;;
8964;SDS011;4517;49.020;12.066;2023-04-06T11:34:17;17.30;;;15.90;;
8964;SDS011;4517;49.020;12.066;2023-04-06T11:36:44;17.33;;;15.03;;
8964;SDS011;4517;49.020;12.066;2023-04-06T11:39:18;18.30;;;16.83;;
8964;SDS011;4517;49.020;12.066;2023-04-06T11:41:53;19.13;;;17.33;;
8964;SDS011;4517;49.020;12.066;2023-04-06T11:47:04;18.27;;;16.80;;
8964;SDS011;4517;49.020;12.066;2023-04-06T11:49:32;19.50;;;17.87;;
8964;SDS011;4517;49.020;12.066;2023-04-06T11:51:59;17.57;;;16.23;;
8964;SDS011;4517;49.020;12.066;2023-04-06T11:57:02;17.73;;;16.37;;
8964;SDS011;4517;49.020;12.066;2023-04-06T11:59:28;17.90;;;16.60;;
8964;SDS011;4517;49.020;12.066;2023-04-06T12:01:54;18.97;;;17.37;;
8964;SDS011;4517;49.020;12.066;2023-04-06T12:04:20;18.77;;;17.37;;
8964;SDS011;4517;49.020;12.066;2023-04-06T12:06:46;18.80;;;17.20;;
8964;SDS011;4517;49.020;12.066;2023-04-06T12:09:12;19.17;;;17.67;;
8964;SDS011;4517;49.020;12.066;2023-04-06T12:11:38;19.27;;;17.40;;
8964;SDS011;4517;49.020;12.066;2023-04-06T12:14:04;19.17;;;17.83;;
8964;SDS011;4517;49.020;12.066;2023-04-06T12:16:30;18.57;;;17.03;;
8964;SDS011;4517;49.020;12.066;2023-04-06T12:18:56;18.60;;;17.27;;
8964;SDS011;4517;49.020;12.066;2023-04-06T12:21:22;20.90;;;17.60;;
8964;SDS011;4517;49.020;12.066;2023-04-06T12:23:48;18.60;;;17.03;;
8964;SDS011;4517;49.020;12.066;2023-04-06T12:26:13;17.60;;;15.70;;
8964;SDS011;4517;49.020;12.066;2023-04-06T12:28:39;17.87;;;16.47;;
8964;SDS011;4517;49.020;12.066;2023-04-06T12:31:04;20.50;;;18.73;;
8964;SDS011;4517;49.020;12.066;2023-04-06T12:33:30;19.67;;;18.13;;
8964;SDS011;4517;49.020;12.066;2023-04-06T12:35:56;19.00;;;17.40;;
8964;SDS011;4517;49.020;12.066;2023-04-06T12:38:21;19.80;;;18.20;;
8964;SDS011;4517;49.020;12.066;2023-04-06T12:40:47;19.67;;;18.17;;
8964;SDS011;4517;49.020;12.066;2023-04-06T12:43:13;18.10;;;16.70;;
8964;SDS011;4517;49.020;12.066;2023-04-06T12:45:39;19.13;;;17.63;;
8964;SDS011;4517;49.020;12.066;2023-04-06T12:48:05;19.60;;;18.20;;
8964;SDS011;4517;49.020;12.066;2023-04-06T12:50:31;18.37;;;16.80;;
8964;SDS011;4517;49.020;12.066;2023-04-06T12:52:57;20.57;;;18.97;;
8964;SDS011;4517;49.020;12.066;2023-04-06T12:55:23;20.00;;;18.10;;
8964;SDS011;4517;49.020;12.066;2023-04-06T12:57:48;19.37;;;17.73;;
8964;SDS011;4517;49.020;12.066;2023-04-06T13:00:14;18.13;;;16.90;;
8964;SDS011;4517;49.020;12.066;2023-04-06T13:02:40;19.53;;;18.03;;
8964;SDS011;4517;49.020;12.066;2023-04-06T13:05:11;19.97;;;18.37;;
8964;SDS011;4517;49.020;12.066;2023-04-06T13:07:37;22.23;;;19.40;;
8964;SDS011;4517;49.020;12.066;2023-04-06T13:10:03;18.50;;;17.10;;
8964;SDS011;4517;49.020;12.066;2023-04-06T13:12:29;19.00;;;17.53;;
8964;SDS011;4517;49.020;12.066;2023-04-06T13:14:55;19.03;;;17.70;;
8964;SDS011;4517;49.020;12.066;2023-04-06T13:17:21;20.70;;;18.97;;
8964;SDS011;4517;49.020;12.066;2023-04-06T13:19:47;19.00;;;17.20;;
8964;SDS011;4517;49.020;12.066;2023-04-06T13:22:13;18.70;;;17.13;;
8964;SDS011;4517;49.020;12.066;2023-04-06T13:24:38;18.90;;;17.50;;
8964;SDS011;4517;49.020;12.066;2023-04-06T13:27:04;20.77;;;19.23;;
8964;SDS011;4517;49.020;12.066;2023-04-06T13:29:30;18.93;;;17.53;;
8964;SDS011;4517;49.020;12.066;2023-04-06T13:31:55;20.50;;;18.90;;
8964;SDS011;4517;49.020;12.066;2023-04-06T13:34:21;20.83;;;18.50;;
8964;SDS011;4517;49.020;12.066;2023-04-06T13:36:46;19.80;;;18.30;;
8964;SDS011;4517;49.020;12.066;2023-04-06T13:39:12;19.93;;;18.20;;
8964;SDS011;4517;49.020;12.066;2023-04-06T13:41:38;20.77;;;18.77;;
8964;SDS011;4517;49.020;12.066;2023-04-06T13:44:05;19.60;;;18.10;;
8964;SDS011;4517;49.020;12.066;2023-04-06T13:46:31;19.90;;;18.20;;
8964;SDS011;4517;49.020;12.066;2023-04-06T13:48:57;18.70;;;17.30;;
8964;SDS011;4517;49.020;12.066;2023-04-06T13:51:22;20.10;;;18.30;;
8964;SDS011;4517;49.020;12.066;2023-04-06T13:53:48;20.83;;;19.13;;
8964;SDS011;4517;49.020;12.066;2023-04-06T13:56:17;20.90;;;18.90;;
8964;SDS011;4517;49.020;12.066;2023-04-06T13:58:43;19.57;;;17.67;;
8964;SDS011;4517;49.020;12.066;2023-04-06T14:01:08;19.57;;;18.13;;
8964;SDS011;4517;49.020;12.066;2023-04-06T14:03:35;20.73;;;19.00;;
8964;SDS011;4517;49.020;12.066;2023-04-06T14:06:01;21.47;;;19.77;;
8964;SDS011;4517;49.020;12.066;2023-04-06T14:08:34;20.27;;;18.57;;
8964;SDS011;4517;49.020;12.066;2023-04-06T14:11:00;20.63;;;18.70;;
8964;SDS011;4517;49.020;12.066;2023-04-06T14:13:26;17.80;;;16.40;;
8964;SDS011;4517;49.020;12.066;2023-04-06T14:15:52;19.10;;;17.60;;
8964;SDS011;4517;49.020;12.066;2023-04-06T14:18:19;19.10;;;17.70;;
8964;SDS011;4517;49.020;12.066;2023-04-06T14:20:44;18.60;;;17.30;;
8964;SDS011;4517;49.020;12.066;2023-04-06T14:23:10;16.60;;;15.40;;
8964;SDS011;4517;49.020;12.066;2023-04-06T14:25:36;19.23;;;17.73;;
8964;SDS011;4517;49.020;12.066;2023-04-06T14:28:01;18.60;;;16.90;;
8964;SDS011;4517;49.020;12.066;2023-04-06T14:30:27;17.77;;;16.27;;
8964;SDS011;4517;49.020;12.066;2023-04-06T14:32:58;18.20;;;16.83;;
8964;SDS011;4517;49.020;12.066;2023-04-06T14:35:24;17.87;;;16.57;;
8964;SDS011;4517;49.020;12.066;2023-04-06T14:37:50;17.50;;;16.20;;
8964;SDS011;4517;49.020;12.066;2023-04-06T14:40:15;17.67;;;16.37;;
8964;SDS011;4517;49.020;12.066;2023-04-06T14:42:41;17.23;;;15.67;;